createdAt,value
2023-03-24T00:02:51.851Z,7.05
2023-03-24T00:08:15.170Z,6.91
2023-03-24T00:13:40.724Z,6.89
2023-03-24T00:19:03.401Z,6.78
2023-03-24T00:24:25.790Z,6.71
2023-03-24T00:29:48.047Z,6.52
2023-03-24T00:35:13.229Z,6.48
2023-03-24T00:40:37.225Z,6.31
2023-03-24T00:46:02.343Z,6.31
2023-03-24T00:51:25.427Z,6.30
2023-03-24T00:56:50.159Z,6.31
2023-03-24T01:02:15.478Z,6.26
2023-03-24T01:07:41.101Z,6.21
2023-03-24T01:13:05.777Z,6.16
2023-03-24T01:18:28.643Z,6.01
2023-03-24T01:23:51.390Z,5.90
2023-03-24T01:29:13.658Z,5.83
2023-03-24T01:34:36.820Z,5.79
2023-03-24T01:39:59.144Z,5.84
2023-03-24T01:45:59.662Z,5.91
2023-03-24T01:51:38.266Z,5.92
2023-03-24T01:57:06.827Z,5.90
2023-03-24T02:02:30.314Z,5.88
2023-03-24T02:08:03.626Z,5.85
2023-03-24T02:13:26.560Z,5.86
2023-03-24T02:19:18.882Z,5.62
2023-03-24T02:25:28.234Z,5.49
2023-03-24T02:31:25.824Z,5.36
2023-03-24T02:37:17.300Z,5.23
2023-03-24T02:43:05.187Z,5.34
2023-03-24T02:48:58.744Z,5.34
2023-03-24T02:54:35.005Z,5.31
2023-03-24T03:00:12.667Z,5.44
2023-03-24T03:05:39.868Z,5.37
2023-03-24T03:11:08.025Z,5.31
2023-03-24T03:16:39.609Z,5.27
2023-03-24T03:22:24.244Z,5.39
2023-03-24T03:27:49.867Z,5.30
2023-03-24T03:33:18.581Z,5.33
2023-03-24T03:39:14.150Z,5.28
2023-03-24T03:44:37.866Z,5.19
2023-03-24T03:50:00.367Z,5.30
2023-03-24T03:55:24.775Z,5.47
2023-03-24T04:00:48.254Z,5.49
2023-03-24T04:06:20.090Z,5.51
2023-03-24T04:12:18.153Z,5.54
2023-03-24T04:18:18.920Z,5.60
2023-03-24T04:23:55.002Z,5.64
2023-03-24T04:29:45.269Z,5.59
2023-03-24T04:35:14.606Z,5.50
2023-03-24T04:40:39.965Z,5.56
2023-03-24T04:46:02.788Z,5.55
2023-03-24T04:51:29.029Z,5.57
2023-03-24T04:57:04.309Z,5.56
2023-03-24T05:02:27.478Z,5.58
2023-03-24T05:07:50.641Z,5.49
2023-03-24T05:13:14.419Z,5.57
2023-03-24T05:18:38.086Z,5.65
2023-03-24T05:24:00.470Z,5.72
2023-03-24T05:29:22.941Z,5.87
2023-03-24T05:34:46.118Z,5.91
2023-03-24T05:40:09.201Z,5.93
2023-03-24T05:45:31.859Z,5.96
2023-03-24T05:50:54.344Z,6.04
2023-03-24T05:56:17.427Z,6.18
2023-03-24T06:01:39.738Z,6.33
2023-03-24T06:07:03.128Z,6.43
2023-03-24T06:12:26.028Z,6.58
2023-03-24T06:17:50.464Z,6.71
2023-03-24T06:23:12.790Z,6.85
2023-03-24T06:28:35.751Z,7.00
2023-03-24T06:33:58.397Z,7.14
2023-03-24T06:39:21.574Z,7.29
2023-03-24T06:44:44.141Z,7.44
2023-03-24T06:50:07.404Z,7.70
2023-03-24T06:55:29.780Z,8.00
2023-03-24T07:00:52.238Z,8.26
2023-03-24T07:06:14.928Z,8.45
2023-03-24T07:11:37.362Z,8.60
2023-03-24T07:16:59.639Z,8.74
2023-03-24T07:22:22.402Z,8.83
2023-03-24T07:27:44.845Z,8.97
2023-03-24T07:33:11.371Z,9.14
2023-03-24T07:38:46.159Z,9.59
2023-03-24T07:44:10.317Z,9.64
2023-03-24T07:49:32.759Z,9.63
2023-03-24T07:54:55.095Z,9.64
2023-03-24T08:00:21.691Z,9.58
2023-03-24T08:05:44.613Z,9.60
2023-03-24T08:11:07.423Z,9.63
2023-03-24T08:16:30.039Z,9.61
2023-03-24T08:21:52.849Z,9.61
2023-03-24T08:27:17.021Z,9.75
2023-03-24T08:32:42.527Z,10.00
2023-03-24T08:38:07.099Z,10.26
2023-03-24T08:43:31.049Z,10.50
2023-03-24T08:48:54.163Z,10.65
2023-03-24T08:54:19.698Z,10.90
2023-03-24T08:59:41.974Z,11.11
2023-03-24T09:05:04.904Z,11.39
2023-03-24T09:10:28.983Z,11.55
2023-03-24T09:15:55.229Z,11.77
2023-03-24T09:21:18.188Z,12.24
2023-03-24T09:26:40.747Z,12.56
2023-03-24T09:32:03.752Z,12.74
2023-03-24T09:37:26.186Z,13.22
2023-03-24T09:42:55.859Z,13.42
2023-03-24T10:01:26.835Z,13.67
2023-03-24T10:17:45.208Z,15.08
2023-03-24T10:23:24.398Z,15.12
2023-03-24T10:29:01.093Z,15.31
2023-03-24T10:34:30.507Z,15.48
2023-03-24T10:39:56.295Z,15.02
2023-03-24T10:45:20.523Z,15.02
2023-03-24T10:50:48.520Z,15.13
2023-03-24T10:56:11.061Z,15.10
2023-03-24T11:01:42.576Z,15.53
2023-03-24T11:07:21.288Z,15.87
2023-03-24T11:18:32.010Z,15.39
2023-03-24T11:23:52.845Z,15.44
2023-03-24T11:29:30.573Z,15.51
2023-03-24T11:35:01.653Z,15.66
2023-03-24T11:40:31.556Z,15.67
2023-03-24T11:46:14.049Z,15.77
2023-03-24T11:51:45.462Z,15.68
2023-03-24T11:57:17.929Z,15.64
2023-03-24T12:02:48.730Z,15.50
2023-03-24T12:08:37.831Z,15.29
2023-03-24T12:14:05.598Z,15.05
2023-03-24T12:19:56.510Z,14.60
2023-03-24T12:25:49.685Z,14.36
2023-03-24T12:31:57.607Z,13.94
2023-03-24T12:37:45.575Z,13.66
2023-03-24T12:49:15.695Z,13.39
2023-03-24T12:55:05.244Z,13.04
2023-03-24T13:00:41.326Z,12.96
2023-03-24T13:06:17.570Z,12.97
2023-03-24T13:17:40.494Z,13.48
2023-03-24T13:23:36.890Z,13.69
2023-03-24T13:41:52.352Z,14.13
2023-03-24T13:53:55.482Z,14.21
2023-03-24T13:59:42.250Z,14.31
2023-03-24T14:05:31.916Z,14.57
2023-03-24T14:11:03.456Z,14.67
2023-03-24T14:16:53.060Z,14.72
2023-03-24T14:22:50.152Z,14.80
2023-03-24T14:28:33.046Z,15.01
2023-03-24T14:34:13.583Z,15.20
2023-03-24T14:39:48.593Z,15.34
2023-03-24T14:45:15.154Z,15.27
2023-03-24T14:50:43.890Z,15.33
2023-03-24T14:56:21.952Z,15.21
2023-03-24T15:07:26.045Z,15.26
2023-03-24T15:13:21.706Z,15.08
2023-03-24T15:18:31.438Z,14.97
2023-03-24T15:23:53.985Z,14.87
2023-03-24T15:29:18.998Z,14.81
2023-03-24T15:34:57.266Z,14.73
2023-03-24T15:40:34.044Z,14.68
2023-03-24T15:46:12.405Z,14.65
2023-03-24T15:57:37.731Z,14.70
2023-03-24T16:03:09.582Z,14.51
2023-03-24T16:08:51.645Z,14.46
2023-03-24T16:20:16.478Z,14.49
2023-03-24T16:25:38.979Z,14.36
2023-03-24T16:31:07.819Z,14.25
2023-03-24T16:36:32.871Z,14.23
2023-03-24T16:41:55.846Z,14.21
2023-03-24T16:47:18.236Z,14.16
2023-03-24T16:52:40.645Z,14.07
2023-03-24T16:58:02.983Z,13.96
2023-03-24T17:03:25.741Z,13.92
2023-03-24T17:08:48.192Z,13.85
2023-03-24T17:19:44.623Z,13.85
2023-03-24T17:25:07.156Z,13.80
2023-03-24T17:30:40.477Z,13.67
2023-03-24T17:41:44.070Z,12.73
2023-03-24T17:47:07.772Z,11.55
2023-03-24T17:52:30.964Z,10.94
2023-03-24T17:57:53.984Z,10.65
2023-03-24T18:03:17.051Z,10.44
2023-03-24T18:08:39.514Z,10.31
2023-03-24T18:14:02.230Z,10.34
2023-03-24T18:19:25.880Z,10.28
2023-03-24T18:24:48.562Z,10.20
2023-03-24T18:30:13.274Z,10.02
2023-03-24T18:35:36.069Z,9.90
2023-03-24T18:41:05.302Z,9.79
2023-03-24T18:46:28.968Z,9.68
2023-03-24T18:51:51.845Z,9.53
2023-03-24T18:57:14.335Z,9.37
2023-03-24T19:02:41.206Z,9.22
2023-03-24T19:08:05.400Z,9.01
2023-03-24T19:13:32.049Z,8.85
2023-03-24T19:18:56.800Z,8.69
2023-03-24T19:24:19.585Z,8.57
2023-03-24T19:29:42.204Z,8.51
2023-03-24T19:35:05.563Z,8.65
2023-03-24T19:40:29.158Z,8.57
2023-03-24T19:45:58.685Z,8.51
2023-03-24T19:51:21.755Z,8.63
2023-03-24T19:56:44.252Z,8.68
2023-03-24T20:02:07.558Z,8.66
2023-03-24T20:07:31.361Z,8.64
2023-03-24T20:12:54.125Z,8.73
2023-03-24T20:18:17.020Z,8.70
2023-03-24T20:23:39.575Z,8.50
2023-03-24T20:29:02.290Z,8.39
2023-03-24T20:34:24.754Z,8.17
2023-03-24T20:39:47.118Z,8.11
2023-03-24T20:45:09.499Z,7.92
2023-03-24T20:50:31.852Z,7.79
2023-03-24T20:56:02.020Z,7.72
2023-03-24T21:01:22.951Z,7.72
2023-03-24T21:06:45.354Z,7.59
2023-03-24T21:12:07.589Z,7.58
2023-03-24T21:17:31.520Z,7.49
2023-03-24T21:22:55.285Z,7.38
2023-03-24T21:28:20.865Z,7.38
2023-03-24T21:33:44.913Z,7.26
2023-03-24T21:39:09.249Z,7.23
2023-03-24T21:44:32.517Z,7.08
2023-03-24T21:49:56.464Z,7.09
2023-03-24T21:55:20.788Z,7.07
2023-03-24T22:00:45.284Z,6.94
2023-03-24T22:11:43.297Z,7.05
2023-03-24T22:17:05.569Z,6.85
2023-03-24T22:22:27.897Z,6.97
2023-03-24T22:27:52.872Z,6.79
2023-03-24T22:33:15.734Z,6.67
2023-03-24T22:38:44.070Z,6.69
2023-03-24T22:44:06.480Z,6.65
2023-03-24T22:49:29.682Z,6.48
2023-03-24T22:54:52.002Z,6.37
2023-03-24T23:00:15.017Z,6.27
2023-03-24T23:05:37.256Z,6.29
2023-03-24T23:11:01.211Z,6.17
2023-03-24T23:16:24.019Z,6.02
2023-03-24T23:21:47.499Z,6.09
2023-03-24T23:27:09.743Z,6.10
2023-03-24T23:32:32.109Z,5.97
2023-03-24T23:37:55.478Z,5.93
2023-03-24T23:43:17.852Z,6.02
2023-03-24T23:48:42.133Z,6.07
2023-03-24T23:54:04.520Z,6.10
2023-03-24T23:59:27.800Z,6.09
